createdAt,value
2018-08-16T00:00:19.299Z,16.20
2018-08-16T00:01:22.871Z,16.20
2018-08-16T00:02:26.481Z,16.20
2018-08-16T00:03:30.080Z,16.20
2018-08-16T00:04:34.378Z,16.10
2018-08-16T00:05:38.084Z,16.10
2018-08-16T00:06:41.620Z,16.10
2018-08-16T00:07:45.450Z,16.10
2018-08-16T00:08:48.963Z,16.10
2018-08-16T00:09:52.526Z,16.10
2018-08-16T00:10:56.042Z,16.00
2018-08-16T00:11:59.644Z,16.00
2018-08-16T00:13:03.273Z,16.00
2018-08-16T00:14:06.836Z,16.00
2018-08-16T00:15:11.043Z,16.00
2018-08-16T00:16:14.583Z,16.00
2018-08-16T00:17:18.075Z,15.90
2018-08-16T00:18:22.082Z,15.90
2018-08-16T00:19:25.637Z,15.90
2018-08-16T00:20:29.228Z,15.90
2018-08-16T00:21:33.053Z,15.90
2018-08-16T00:22:36.883Z,15.90
2018-08-16T00:23:40.429Z,15.90
2018-08-16T00:24:43.918Z,15.80
2018-08-16T00:25:48.057Z,15.80
2018-08-16T00:26:51.644Z,15.80
2018-08-16T00:27:55.208Z,15.80
2018-08-16T00:28:58.830Z,15.70
2018-08-16T00:30:02.525Z,15.70
2018-08-16T00:31:06.193Z,15.70
2018-08-16T00:32:09.767Z,15.70
2018-08-16T00:33:13.291Z,15.60
2018-08-16T00:34:16.862Z,15.60
2018-08-16T00:35:20.406Z,15.60
2018-08-16T00:36:24.014Z,15.60
2018-08-16T00:37:27.564Z,15.50
2018-08-16T00:38:31.158Z,15.50
2018-08-16T00:39:34.730Z,15.50
2018-08-16T00:40:38.212Z,15.50
2018-08-16T00:41:41.791Z,15.50
2018-08-16T00:42:45.359Z,15.50
2018-08-16T00:43:48.864Z,15.50
2018-08-16T00:44:52.987Z,15.50
2018-08-16T00:45:56.556Z,15.50
2018-08-16T00:47:00.137Z,15.50
2018-08-16T00:48:03.937Z,15.50
2018-08-16T00:49:08.053Z,15.50
2018-08-16T00:50:13.470Z,15.50
2018-08-16T00:51:16.979Z,15.50
2018-08-16T00:52:20.474Z,15.50
2018-08-16T00:53:24.283Z,15.50
2018-08-16T00:54:27.816Z,15.50
2018-08-16T00:55:31.344Z,15.40
2018-08-16T00:56:35.198Z,15.40
2018-08-16T00:57:39.141Z,15.40
2018-08-16T00:58:42.878Z,15.40
2018-08-16T00:59:46.344Z,15.40
2018-08-16T01:00:50.094Z,15.40
2018-08-16T01:01:53.698Z,15.40
2018-08-16T01:02:57.494Z,15.40
2018-08-16T01:04:01.023Z,15.30
2018-08-16T01:05:04.988Z,15.30
2018-08-16T01:06:08.783Z,15.30
2018-08-16T01:07:12.443Z,15.30
2018-08-16T01:08:16.094Z,15.30
2018-08-16T01:09:19.629Z,15.30
2018-08-16T01:10:23.358Z,15.30
2018-08-16T01:11:27.570Z,15.30
2018-08-16T01:12:31.160Z,15.20
2018-08-16T01:13:34.882Z,15.20
2018-08-16T01:14:38.557Z,15.20
2018-08-16T01:15:42.251Z,15.20
2018-08-16T01:16:45.993Z,15.20
2018-08-16T01:17:49.534Z,15.10
2018-08-16T01:18:54.017Z,15.10
2018-08-16T01:19:57.653Z,15.10
2018-08-16T01:21:01.879Z,15.10
2018-08-16T01:22:05.570Z,15.00
2018-08-16T01:23:09.813Z,15.00
2018-08-16T01:24:13.406Z,15.00
2018-08-16T01:25:16.972Z,15.00
2018-08-16T01:26:20.601Z,15.00
2018-08-16T01:27:24.141Z,15.00
2018-08-16T01:28:27.875Z,15.00
2018-08-16T01:29:31.403Z,15.00
2018-08-16T01:30:35.050Z,15.00
2018-08-16T01:31:39.217Z,15.10
2018-08-16T01:32:42.807Z,15.10
2018-08-16T01:33:46.365Z,15.00
2018-08-16T01:34:50.018Z,15.00
2018-08-16T01:35:53.537Z,15.00
2018-08-16T01:36:57.248Z,15.00
2018-08-16T01:38:00.753Z,15.00
2018-08-16T01:39:05.145Z,14.90
2018-08-16T01:40:09.273Z,14.90
2018-08-16T01:41:12.946Z,14.90
2018-08-16T01:42:16.465Z,14.80
2018-08-16T01:43:20.337Z,14.80
2018-08-16T01:44:23.919Z,14.90
2018-08-16T01:45:27.459Z,14.80
2018-08-16T01:46:31.269Z,14.80
2018-08-16T01:47:35.207Z,14.80
2018-08-16T01:48:38.722Z,14.80
2018-08-16T01:49:42.418Z,14.80
2018-08-16T01:50:45.985Z,14.80
2018-08-16T01:51:49.610Z,14.80
2018-08-16T01:52:53.194Z,14.80
2018-08-16T01:53:56.762Z,14.80
2018-08-16T01:55:00.277Z,14.80
2018-08-16T01:56:03.923Z,14.80
2018-08-16T01:57:07.445Z,14.80
2018-08-16T01:58:10.995Z,14.80
2018-08-16T01:59:14.580Z,14.80
2018-08-16T02:00:19.055Z,14.90
2018-08-16T02:01:22.523Z,14.90
2018-08-16T02:02:26.125Z,14.90
2018-08-16T02:03:29.653Z,14.90
2018-08-16T02:04:33.299Z,14.90
2018-08-16T02:05:37.124Z,14.80
2018-08-16T02:06:40.765Z,14.80
2018-08-16T02:07:45.105Z,14.80
2018-08-16T02:08:49.335Z,14.80
2018-08-16T02:09:52.845Z,14.70
2018-08-16T02:10:56.715Z,14.70
2018-08-16T02:12:00.351Z,14.70
2018-08-16T02:13:04.008Z,14.70
2018-08-16T02:14:08.113Z,14.70
2018-08-16T02:15:13.150Z,14.70
2018-08-16T02:16:16.639Z,14.80
2018-08-16T02:17:20.235Z,14.70
2018-08-16T02:18:23.769Z,14.70
2018-08-16T02:19:27.291Z,14.70
2018-08-16T02:20:31.486Z,14.70
2018-08-16T02:21:35.537Z,14.70
2018-08-16T02:22:39.262Z,14.80
2018-08-16T02:23:43.196Z,14.70
2018-08-16T02:24:46.961Z,14.70
2018-08-16T02:25:50.649Z,14.70
2018-08-16T02:26:54.254Z,14.70
2018-08-16T02:27:57.777Z,14.70
2018-08-16T02:29:01.500Z,14.80
2018-08-16T02:30:06.625Z,14.70
2018-08-16T02:31:10.218Z,14.70
2018-08-16T02:32:14.424Z,14.70
2018-08-16T02:33:17.944Z,14.70
2018-08-16T02:34:21.724Z,14.70
2018-08-16T02:35:25.324Z,14.70
2018-08-16T02:36:28.905Z,14.70
2018-08-16T02:37:32.912Z,14.70
2018-08-16T02:38:36.416Z,14.70
2018-08-16T02:39:40.560Z,14.60
2018-08-16T02:40:44.164Z,14.70
2018-08-16T02:41:47.883Z,14.70
2018-08-16T02:42:52.191Z,14.70
2018-08-16T02:43:55.778Z,14.60
2018-08-16T02:44:59.400Z,14.60
2018-08-16T02:46:02.927Z,14.60
2018-08-16T02:47:06.468Z,14.60
2018-08-16T02:48:10.163Z,14.60
2018-08-16T02:49:13.957Z,14.60
2018-08-16T02:50:17.616Z,14.60
2018-08-16T02:51:21.841Z,14.60
2018-08-16T02:52:25.556Z,14.60
2018-08-16T02:53:29.640Z,14.60
2018-08-16T02:54:34.006Z,14.50
2018-08-16T02:55:37.634Z,14.60
2018-08-16T02:56:41.196Z,14.60
2018-08-16T02:57:44.812Z,14.50
2018-08-16T02:58:48.925Z,14.50
2018-08-16T02:59:52.490Z,14.50
2018-08-16T03:00:55.990Z,14.50
2018-08-16T03:01:59.563Z,14.50
2018-08-16T03:03:03.204Z,14.60
2018-08-16T03:04:06.756Z,14.50
2018-08-16T03:05:10.539Z,14.50
2018-08-16T03:06:14.203Z,14.50
2018-08-16T03:07:17.721Z,14.50
2018-08-16T03:08:23.035Z,14.50
2018-08-16T03:09:26.630Z,14.50
2018-08-16T03:10:30.306Z,14.50
2018-08-16T03:11:34.493Z,14.50
2018-08-16T03:12:38.381Z,14.50
2018-08-16T03:13:42.074Z,14.40
2018-08-16T03:14:45.618Z,14.40
2018-08-16T03:15:49.168Z,14.50
2018-08-16T03:16:52.698Z,14.50
2018-08-16T03:17:56.983Z,14.50
2018-08-16T03:19:00.543Z,14.50
2018-08-16T03:20:04.555Z,14.50
2018-08-16T03:21:08.130Z,14.50
2018-08-16T03:22:11.804Z,14.50
2018-08-16T03:23:15.418Z,14.50
2018-08-16T03:24:19.104Z,14.50
2018-08-16T03:25:22.994Z,14.60
2018-08-16T03:26:26.669Z,14.60
2018-08-16T03:27:30.286Z,14.60
2018-08-16T03:28:34.896Z,14.60
2018-08-16T03:29:38.543Z,14.60
2018-08-16T03:30:42.827Z,14.50
2018-08-16T03:31:47.303Z,14.50
2018-08-16T03:32:50.808Z,14.50
2018-08-16T03:33:54.427Z,14.50
2018-08-16T03:34:57.949Z,14.60
2018-08-16T03:36:01.532Z,14.50
2018-08-16T03:37:05.177Z,14.50
2018-08-16T03:38:09.363Z,14.50
2018-08-16T03:39:12.968Z,14.50
2018-08-16T03:40:16.556Z,14.50
2018-08-16T03:41:20.030Z,14.40
2018-08-16T03:42:23.804Z,14.40
2018-08-16T03:43:27.343Z,14.40
2018-08-16T03:44:30.901Z,14.40
2018-08-16T03:45:34.473Z,14.40
2018-08-16T03:46:38.813Z,14.40
2018-08-16T03:47:42.308Z,14.40
2018-08-16T03:48:46.087Z,14.40
2018-08-16T03:49:49.672Z,14.40
2018-08-16T03:50:53.231Z,14.40
2018-08-16T03:51:56.879Z,14.50
2018-08-16T03:53:00.933Z,14.50
2018-08-16T03:54:04.630Z,14.50
2018-08-16T03:55:08.269Z,14.50
2018-08-16T03:56:12.125Z,14.50
2018-08-16T03:57:15.602Z,14.50
2018-08-16T03:58:19.596Z,14.50
2018-08-16T03:59:23.309Z,14.50
2018-08-16T04:00:26.858Z,14.50
2018-08-16T04:01:30.435Z,14.50
2018-08-16T04:02:33.933Z,14.60
2018-08-16T04:03:37.502Z,14.60
2018-08-16T04:04:41.147Z,14.70
2018-08-16T04:05:44.660Z,14.60
2018-08-16T04:06:48.222Z,14.60
2018-08-16T04:07:51.766Z,14.60
2018-08-16T04:08:55.433Z,14.60
2018-08-16T04:09:58.960Z,14.60
2018-08-16T04:11:02.578Z,14.60
2018-08-16T04:12:06.771Z,14.60
2018-08-16T04:13:10.439Z,14.50
2018-08-16T04:14:14.282Z,14.60
2018-08-16T04:15:17.788Z,14.60
2018-08-16T04:16:21.377Z,14.50
2018-08-16T04:17:35.193Z,14.60
2018-08-16T04:18:38.832Z,14.50
2018-08-16T04:19:42.656Z,14.60
2018-08-16T04:20:46.315Z,14.60
2018-08-16T04:21:49.881Z,14.60
2018-08-16T04:22:54.133Z,14.60
2018-08-16T04:23:57.631Z,14.50
2018-08-16T04:25:01.475Z,14.50
2018-08-16T04:26:04.958Z,14.50
2018-08-16T04:27:09.347Z,14.60
2018-08-16T04:28:12.893Z,14.50
2018-08-16T04:29:16.449Z,14.60
2018-08-16T04:30:19.969Z,14.60
2018-08-16T04:31:24.179Z,14.60
2018-08-16T04:32:27.932Z,14.60
2018-08-16T04:33:31.772Z,14.70
2018-08-16T04:34:35.381Z,14.70
2018-08-16T04:35:38.950Z,14.70
2018-08-16T04:36:42.466Z,14.80
2018-08-16T04:37:46.741Z,14.80
2018-08-16T04:38:50.341Z,14.90
2018-08-16T04:39:53.995Z,14.90
2018-08-16T04:40:57.777Z,14.90
2018-08-16T04:42:01.377Z,14.90
2018-08-16T04:43:05.002Z,15.10
2018-08-16T04:44:08.529Z,15.20
2018-08-16T04:45:13.465Z,15.40
2018-08-16T04:46:17.335Z,15.50
2018-08-16T04:47:20.829Z,15.60
2018-08-16T04:48:24.483Z,15.60
2018-08-16T04:49:28.130Z,15.70
2018-08-16T04:50:31.667Z,15.80
2018-08-16T04:51:35.967Z,16.00
2018-08-16T04:52:40.126Z,16.20
2018-08-16T04:53:43.628Z,16.50
2018-08-16T04:54:47.176Z,16.70
2018-08-16T04:55:52.279Z,17.00
2018-08-16T04:56:56.226Z,17.20
2018-08-16T04:57:59.815Z,17.50
2018-08-16T04:59:03.392Z,17.70
2018-08-16T05:00:09.621Z,18.00
2018-08-16T05:01:13.217Z,18.30
2018-08-16T05:02:16.841Z,18.60
2018-08-16T05:03:20.353Z,18.90
2018-08-16T05:04:24.183Z,19.20
2018-08-16T05:05:27.795Z,19.50
2018-08-16T05:06:31.428Z,19.80
2018-08-16T05:07:35.224Z,20.10
2018-08-16T05:08:38.774Z,20.40
2018-08-16T05:09:42.396Z,20.70
2018-08-16T05:10:46.837Z,21.00
2018-08-16T05:11:50.322Z,21.30
2018-08-16T05:12:54.549Z,21.60
2018-08-16T05:13:58.119Z,21.80
2018-08-16T05:15:01.689Z,22.00
2018-08-16T05:16:05.242Z,22.40
2018-08-16T05:17:09.007Z,22.60
2018-08-16T05:18:12.677Z,22.80
2018-08-16T05:19:16.384Z,23.10
2018-08-16T05:20:20.213Z,23.30
2018-08-16T05:21:23.709Z,23.50
2018-08-16T05:22:27.270Z,23.60
2018-08-16T05:23:30.924Z,23.80
2018-08-16T05:24:34.485Z,24.00
2018-08-16T05:25:38.176Z,24.20
2018-08-16T05:26:41.724Z,24.40
2018-08-16T05:27:45.291Z,24.60
2018-08-16T05:28:48.757Z,24.80
2018-08-16T05:29:53.069Z,25.10
2018-08-16T05:30:56.831Z,25.30
2018-08-16T05:32:01.229Z,25.50
2018-08-16T05:33:05.385Z,25.80
2018-08-16T05:34:09.032Z,26.00
2018-08-16T05:35:12.818Z,26.20
2018-08-16T05:36:16.373Z,26.40
2018-08-16T05:37:20.296Z,26.60
2018-08-16T05:38:23.831Z,26.70
2018-08-16T05:39:27.890Z,26.80
2018-08-16T05:40:31.645Z,26.90
2018-08-16T05:41:35.242Z,27.00
2018-08-16T05:42:39.579Z,26.90
2018-08-16T05:43:43.193Z,27.00
2018-08-16T05:44:46.943Z,27.00
2018-08-16T05:45:51.180Z,27.10
2018-08-16T05:46:54.675Z,27.20
2018-08-16T05:47:58.428Z,27.30
2018-08-16T05:49:02.219Z,27.30
2018-08-16T05:50:08.688Z,27.30
2018-08-16T05:51:13.165Z,27.40
2018-08-16T05:52:16.773Z,27.60
2018-08-16T05:53:20.292Z,27.70
2018-08-16T05:54:24.801Z,27.90
2018-08-16T05:55:28.581Z,27.90
2018-08-16T05:56:32.068Z,27.90
2018-08-16T05:57:35.773Z,28.00
2018-08-16T05:58:39.330Z,28.00
2018-08-16T05:59:43.641Z,28.20
2018-08-16T06:00:47.200Z,28.20
2018-08-16T06:01:51.327Z,28.20
2018-08-16T06:02:54.948Z,28.10
2018-08-16T06:03:58.813Z,28.10
2018-08-16T06:05:02.907Z,28.20
2018-08-16T06:06:07.054Z,28.20
2018-08-16T06:07:10.574Z,28.30
2018-08-16T06:08:14.612Z,28.40
2018-08-16T06:09:18.365Z,28.40
2018-08-16T06:10:22.405Z,28.70
2018-08-16T06:11:25.949Z,28.70
2018-08-16T06:12:29.535Z,29.00
2018-08-16T06:13:34.048Z,29.20
2018-08-16T06:14:37.676Z,29.40
2018-08-16T06:15:41.259Z,29.60
2018-08-16T06:16:44.813Z,29.70
2018-08-16T06:17:48.354Z,29.80
2018-08-16T06:18:52.445Z,29.90
2018-08-16T06:19:56.624Z,29.90
2018-08-16T06:21:00.161Z,30.10
2018-08-16T06:22:03.964Z,30.20
2018-08-16T06:23:07.483Z,30.30
2018-08-16T06:24:11.136Z,30.30
2018-08-16T06:25:14.852Z,30.40
2018-08-16T06:26:18.404Z,30.60
2018-08-16T06:27:21.888Z,30.80
2018-08-16T06:28:25.492Z,30.80
2018-08-16T06:29:29.890Z,30.80
2018-08-16T06:30:34.099Z,31.00
2018-08-16T06:31:37.845Z,31.30
2018-08-16T06:32:41.876Z,31.50
2018-08-16T06:33:45.707Z,31.70
2018-08-16T06:34:49.339Z,31.80
2018-08-16T06:35:52.892Z,31.90
2018-08-16T06:36:56.449Z,32.00
2018-08-16T06:38:00.984Z,32.10
2018-08-16T06:39:07.303Z,32.30
2018-08-16T06:40:15.140Z,32.40
2018-08-16T06:41:18.812Z,32.50
2018-08-16T06:42:23.390Z,32.60
2018-08-16T06:43:27.143Z,32.80
2018-08-16T06:44:30.876Z,33.10
2018-08-16T06:45:34.564Z,33.50
2018-08-16T06:46:38.098Z,33.70
2018-08-16T06:47:41.889Z,33.80
2018-08-16T06:48:45.543Z,33.90
2018-08-16T06:49:49.174Z,34.10
2018-08-16T06:50:52.818Z,34.30
2018-08-16T06:51:56.601Z,34.50
2018-08-16T06:53:00.107Z,34.70
2018-08-16T06:54:03.753Z,34.90
2018-08-16T06:55:08.404Z,35.10
2018-08-16T06:56:12.439Z,35.10
2018-08-16T06:57:16.365Z,35.40
2018-08-16T06:58:20.003Z,35.40
2018-08-16T06:59:23.697Z,35.50
2018-08-16T07:00:27.310Z,35.20
2018-08-16T07:01:31.288Z,35.20
2018-08-16T07:02:35.181Z,35.10
2018-08-16T07:03:38.818Z,35.10
2018-08-16T07:04:42.933Z,35.10
2018-08-16T07:05:46.582Z,34.90
2018-08-16T07:06:50.146Z,35.10
2018-08-16T07:07:53.748Z,35.20
2018-08-16T07:08:57.492Z,35.10
2018-08-16T07:10:00.997Z,34.90
2018-08-16T07:11:04.645Z,34.60
2018-08-16T07:12:09.096Z,34.30
2018-08-16T07:13:13.306Z,34.20
2018-08-16T07:14:16.830Z,34.10
2018-08-16T07:15:20.400Z,34.00
2018-08-16T07:16:24.051Z,33.90
2018-08-16T07:17:27.653Z,34.10
2018-08-16T07:18:31.378Z,34.20
2018-08-16T07:19:34.951Z,34.20
2018-08-16T07:20:38.449Z,34.20
2018-08-16T07:21:42.208Z,34.20
2018-08-16T07:22:45.825Z,34.40
2018-08-16T07:23:49.603Z,34.60
2018-08-16T07:24:53.154Z,34.50
2018-08-16T07:25:57.083Z,34.50
2018-08-16T07:27:00.998Z,34.60
2018-08-16T07:28:04.518Z,34.80
2018-08-16T07:29:08.963Z,35.10
2018-08-16T07:30:12.581Z,35.20
2018-08-16T07:31:16.142Z,35.30
2018-08-16T07:32:19.672Z,35.20
2018-08-16T07:33:23.312Z,35.20
2018-08-16T07:34:28.108Z,35.30
2018-08-16T07:35:31.977Z,35.30
2018-08-16T07:36:35.561Z,35.40
2018-08-16T07:37:39.898Z,35.50
2018-08-16T07:38:43.724Z,35.50
2018-08-16T07:39:47.305Z,35.80
2018-08-16T07:40:51.029Z,35.80
2018-08-16T07:41:55.278Z,35.80
2018-08-16T07:42:58.825Z,36.00
2018-08-16T07:44:02.647Z,36.20
2018-08-16T07:45:08.317Z,36.40
2018-08-16T07:46:12.089Z,36.40
2018-08-16T07:47:15.600Z,36.50
2018-08-16T07:48:19.395Z,36.60
2018-08-16T07:49:23.100Z,36.60
2018-08-16T07:50:26.594Z,36.50
2018-08-16T07:51:31.077Z,36.30
2018-08-16T07:52:34.544Z,36.50
2018-08-16T07:53:38.187Z,36.80
2018-08-16T07:54:42.362Z,36.90
2018-08-16T07:55:46.091Z,36.90
2018-08-16T07:56:50.675Z,37.10
2018-08-16T07:57:55.275Z,37.20
2018-08-16T07:58:58.820Z,37.20
2018-08-16T08:00:03.626Z,37.20
2018-08-16T08:01:07.176Z,37.00
2018-08-16T08:02:11.143Z,36.70
2018-08-16T08:03:14.662Z,36.60
2018-08-16T08:04:18.192Z,36.50
2018-08-16T08:05:21.836Z,36.50
2018-08-16T08:06:25.534Z,36.60
2018-08-16T08:07:29.774Z,36.70
2018-08-16T08:08:33.967Z,36.70
2018-08-16T08:09:37.747Z,36.70
2018-08-16T08:10:41.231Z,36.40
2018-08-16T08:11:45.082Z,36.50
2018-08-16T08:12:48.633Z,36.70
2018-08-16T08:13:52.825Z,36.60
2018-08-16T08:14:56.659Z,36.50
2018-08-16T08:16:00.293Z,36.10
2018-08-16T08:17:04.130Z,36.00
2018-08-16T08:18:07.901Z,36.20
2018-08-16T08:19:11.553Z,36.40
2018-08-16T08:20:16.181Z,36.50
2018-08-16T08:21:19.917Z,36.50
2018-08-16T08:22:24.167Z,36.10
2018-08-16T08:23:28.281Z,35.70
2018-08-16T08:24:31.949Z,35.60
2018-08-16T08:25:35.728Z,35.30
2018-08-16T08:26:39.418Z,35.50
2018-08-16T08:27:43.041Z,35.80
2018-08-16T08:28:46.601Z,35.90
2018-08-16T08:29:50.345Z,35.60
2018-08-16T08:30:53.981Z,35.60
2018-08-16T08:31:57.449Z,35.80
2018-08-16T08:33:01.080Z,35.90
2018-08-16T08:34:04.684Z,36.00
2018-08-16T08:35:09.523Z,36.20
2018-08-16T08:36:25.359Z,36.20
2018-08-16T08:37:40.042Z,36.50
2018-08-16T08:38:43.593Z,36.50
2018-08-16T08:39:47.125Z,36.40
2018-08-16T08:40:50.899Z,36.30
2018-08-16T08:41:54.600Z,36.20
2018-08-16T08:42:58.251Z,36.20
2018-08-16T08:44:11.926Z,35.90
2018-08-16T08:45:16.068Z,35.60
2018-08-16T08:46:20.122Z,35.20
2018-08-16T08:47:27.876Z,34.90
2018-08-16T08:48:32.410Z,34.70
2018-08-16T08:49:35.951Z,34.30
2018-08-16T08:50:40.304Z,34.10
2018-08-16T08:51:43.917Z,33.90
2018-08-16T08:52:47.492Z,33.80
2018-08-16T08:54:10.033Z,33.70
2018-08-16T08:55:24.784Z,33.70
2018-08-16T08:56:40.787Z,33.90
2018-08-16T08:58:00.448Z,34.10
2018-08-16T08:59:04.302Z,34.50
2018-08-16T09:00:09.243Z,34.70
2018-08-16T09:01:13.131Z,34.60
2018-08-16T09:02:18.371Z,34.20
2018-08-16T09:03:21.915Z,34.10
2018-08-16T09:04:25.554Z,34.10
2018-08-16T09:05:30.001Z,34.00
2018-08-16T09:06:33.640Z,33.90
2018-08-16T09:07:37.240Z,33.90
2018-08-16T09:08:40.760Z,33.90
2018-08-16T09:10:54.945Z,34.00
2018-08-16T09:12:09.886Z,34.10
2018-08-16T09:13:25.515Z,33.70
2018-08-16T09:14:40.167Z,33.70
2018-08-16T09:15:48.649Z,33.80
2018-08-16T09:16:52.648Z,33.80
2018-08-16T09:17:56.377Z,33.80
2018-08-16T09:19:00.316Z,33.90
2018-08-16T09:20:04.049Z,33.60
2018-08-16T09:21:08.366Z,33.40
2018-08-16T09:22:12.221Z,33.70
2018-08-16T09:23:16.060Z,33.90
2018-08-16T09:24:19.803Z,34.20
2018-08-16T09:25:24.160Z,34.50
2018-08-16T09:26:33.132Z,34.60
2018-08-16T09:27:36.696Z,34.70
2018-08-16T09:28:40.947Z,34.90
2018-08-16T09:30:21.686Z,34.80
2018-08-16T09:31:36.640Z,34.70
2018-08-16T09:32:51.592Z,34.40
2018-08-16T09:34:06.328Z,34.40
2018-08-16T09:35:10.926Z,34.20
2018-08-16T09:36:15.501Z,34.00
2018-08-16T09:37:49.940Z,34.20
2018-08-16T09:38:54.323Z,34.10
2018-08-16T09:39:58.112Z,34.30
2018-08-16T09:41:02.272Z,34.40
2018-08-16T09:42:07.219Z,34.50
2018-08-16T09:43:10.914Z,34.60
2018-08-16T09:44:15.502Z,34.80
2018-08-16T09:45:30.536Z,34.90
2018-08-16T09:47:00.912Z,34.60
2018-08-16T09:48:16.391Z,34.30
2018-08-16T09:49:21.743Z,34.00
2018-08-16T09:50:26.132Z,33.90
2018-08-16T09:51:30.074Z,33.90
2018-08-16T09:52:34.045Z,33.90
2018-08-16T09:53:38.143Z,33.70
2018-08-16T09:54:41.794Z,33.30
2018-08-16T09:55:46.624Z,32.90
2018-08-16T09:56:51.631Z,32.60
2018-08-16T09:57:55.268Z,32.20
2018-08-16T09:59:07.325Z,31.80
2018-08-16T10:00:13.887Z,31.70
2018-08-16T10:01:17.973Z,31.60
2018-08-16T10:02:23.046Z,31.20
2018-08-16T10:03:26.719Z,31.10
2018-08-16T10:04:30.798Z,31.00
2018-08-16T10:05:34.379Z,30.90
2018-08-16T10:06:39.205Z,30.90
2018-08-16T10:07:42.724Z,30.80
2018-08-16T10:08:46.677Z,30.70
2018-08-16T10:09:50.461Z,30.40
2018-08-16T10:10:54.695Z,30.20
2018-08-16T10:12:00.599Z,30.00
2018-08-16T10:13:04.855Z,29.80
2018-08-16T10:14:09.807Z,29.60
2018-08-16T10:15:14.016Z,29.50
2018-08-16T10:16:18.444Z,29.40
2018-08-16T10:17:23.152Z,29.50
2018-08-16T10:18:26.838Z,29.60
2018-08-16T10:19:30.696Z,29.80
2018-08-16T10:20:34.470Z,29.80
2018-08-16T10:21:39.354Z,29.80
2018-08-16T10:22:43.762Z,29.60
2018-08-16T10:23:47.676Z,29.70
2018-08-16T10:24:52.367Z,29.50
2018-08-16T10:25:56.250Z,29.50
2018-08-16T10:26:59.890Z,29.60
2018-08-16T10:28:03.418Z,29.60
2018-08-16T10:29:07.869Z,29.70
2018-08-16T10:30:12.302Z,29.70
2018-08-16T10:31:18.486Z,29.80
2018-08-16T10:32:23.091Z,29.70
2018-08-16T10:33:28.334Z,29.60
2018-08-16T10:34:32.481Z,29.70
2018-08-16T10:35:37.687Z,29.70
2018-08-16T10:36:42.095Z,29.70
2018-08-16T10:37:45.769Z,29.60
2018-08-16T10:38:49.320Z,29.70
2018-08-16T10:39:52.817Z,29.60
2018-08-16T10:40:56.449Z,29.50
2018-08-16T10:42:00.743Z,29.50
2018-08-16T10:43:05.374Z,29.50
2018-08-16T10:44:09.895Z,29.50
2018-08-16T10:45:13.499Z,29.60
2018-08-16T10:46:17.182Z,29.50
2018-08-16T10:47:20.812Z,29.40
2018-08-16T10:48:24.847Z,29.20
2018-08-16T10:49:28.996Z,29.10
2018-08-16T10:50:32.621Z,29.10
2018-08-16T10:51:36.251Z,29.10
2018-08-16T10:52:39.929Z,29.00
2018-08-16T10:53:43.512Z,29.10
2018-08-16T10:54:47.206Z,29.20
2018-08-16T10:55:51.380Z,29.20
2018-08-16T10:56:55.086Z,29.20
2018-08-16T10:57:58.656Z,29.10
2018-08-16T10:59:02.698Z,28.90
2018-08-16T11:00:07.473Z,28.90
2018-08-16T11:01:11.017Z,28.90
2018-08-16T11:02:14.726Z,28.80
2018-08-16T11:03:18.280Z,28.70
2018-08-16T11:04:21.885Z,28.60
2018-08-16T11:05:26.030Z,28.60
2018-08-16T11:06:30.404Z,28.40
2018-08-16T11:07:35.292Z,28.50
2018-08-16T11:08:39.481Z,28.50
2018-08-16T11:09:43.027Z,28.50
2018-08-16T11:10:46.895Z,28.60
2018-08-16T11:11:51.160Z,28.60
2018-08-16T11:12:54.916Z,28.60
2018-08-16T11:13:59.360Z,28.60
2018-08-16T11:15:03.197Z,28.60
2018-08-16T11:16:06.755Z,28.40
2018-08-16T11:17:10.387Z,28.30
2018-08-16T11:18:13.960Z,28.30
2018-08-16T11:19:17.612Z,28.40
2018-08-16T11:20:21.289Z,28.40
2018-08-16T11:21:25.720Z,28.50
2018-08-16T11:22:29.461Z,28.50
2018-08-16T11:23:33.779Z,28.50
2018-08-16T11:24:38.141Z,28.50
2018-08-16T11:25:41.671Z,28.40
2018-08-16T11:26:45.209Z,28.40
2018-08-16T11:27:48.940Z,28.40
2018-08-16T11:28:52.932Z,28.40
2018-08-16T11:29:56.440Z,28.50
2018-08-16T11:31:00.230Z,28.50
2018-08-16T11:32:03.945Z,28.50
2018-08-16T11:33:08.564Z,28.50
2018-08-16T11:34:12.358Z,28.50
2018-08-16T11:35:16.135Z,28.40
2018-08-16T11:36:20.409Z,28.40
2018-08-16T11:37:24.477Z,28.50
2018-08-16T11:38:27.977Z,28.50
2018-08-16T11:39:31.541Z,28.50
2018-08-16T11:40:35.233Z,28.40
2018-08-16T11:41:39.207Z,28.30
2018-08-16T11:42:42.798Z,28.20
2018-08-16T11:43:46.574Z,28.10
2018-08-16T11:44:50.393Z,28.00
2018-08-16T11:45:54.397Z,27.90
2018-08-16T11:46:58.129Z,27.90
2018-08-16T11:48:01.420Z,27.80
2018-08-16T11:49:05.427Z,27.80
2018-08-16T11:50:10.680Z,27.70
2018-08-16T11:51:14.355Z,27.70
2018-08-16T11:52:18.199Z,27.70
2018-08-16T11:53:21.941Z,27.60
2018-08-16T11:54:25.445Z,27.80
2018-08-16T11:55:29.198Z,27.90
2018-08-16T11:56:33.373Z,28.00
2018-08-16T11:57:36.896Z,28.10
2018-08-16T11:58:40.478Z,28.20
2018-08-16T11:59:44.034Z,28.30
2018-08-16T12:00:47.682Z,28.30
2018-08-16T12:01:51.809Z,28.40
2018-08-16T12:02:55.366Z,28.40
2018-08-16T12:03:59.021Z,28.50
2018-08-16T12:05:02.538Z,28.40
2018-08-16T12:06:06.439Z,28.40
2018-08-16T12:07:09.936Z,28.40
2018-08-16T12:08:13.475Z,28.40
2018-08-16T12:09:18.054Z,28.40
2018-08-16T12:10:21.876Z,28.40
2018-08-16T12:11:25.699Z,28.30
2018-08-16T12:12:29.277Z,28.30
2018-08-16T12:13:32.844Z,28.30
2018-08-16T12:14:36.605Z,28.20
2018-08-16T12:15:40.164Z,28.10
2018-08-16T12:16:43.680Z,28.10
2018-08-16T12:17:47.316Z,28.10
2018-08-16T12:18:50.840Z,28.10
2018-08-16T12:19:54.368Z,28.20
2018-08-16T12:20:57.955Z,28.20
2018-08-16T12:22:01.675Z,28.30
2018-08-16T12:23:05.653Z,28.30
2018-08-16T12:24:09.178Z,28.40
2018-08-16T12:25:13.031Z,28.40
2018-08-16T12:26:16.591Z,28.40
2018-08-16T12:27:20.794Z,28.40
2018-08-16T12:28:24.424Z,28.40
2018-08-16T12:29:28.172Z,28.40
2018-08-16T12:30:32.291Z,28.40
2018-08-16T12:31:35.800Z,28.30
2018-08-16T12:32:39.470Z,28.10
2018-08-16T12:33:43.095Z,28.10
2018-08-16T12:34:46.711Z,28.20
2018-08-16T12:35:50.317Z,28.20
2018-08-16T12:36:54.300Z,28.30
2018-08-16T12:37:58.352Z,28.30
2018-08-16T12:39:01.852Z,28.40
2018-08-16T12:40:06.653Z,28.50
2018-08-16T12:41:11.120Z,28.50
2018-08-16T12:42:14.935Z,28.50
2018-08-16T12:43:18.456Z,28.60
2018-08-16T12:44:22.154Z,28.60
2018-08-16T12:45:25.697Z,28.60
2018-08-16T12:46:29.206Z,28.60
2018-08-16T12:47:33.721Z,28.70
2018-08-16T12:48:37.328Z,28.80
2018-08-16T12:49:41.140Z,28.80
2018-08-16T12:50:45.480Z,28.80
2018-08-16T12:51:49.102Z,28.80
2018-08-16T12:52:52.880Z,28.80
2018-08-16T12:53:56.517Z,28.80
2018-08-16T12:55:00.469Z,28.90
2018-08-16T12:56:04.132Z,29.00
2018-08-16T12:57:07.871Z,29.00
2018-08-16T12:58:11.563Z,29.10
2018-08-16T12:59:15.313Z,29.00
2018-08-16T13:00:19.031Z,29.10
2018-08-16T13:01:22.658Z,29.30
2018-08-16T13:02:26.262Z,29.30
2018-08-16T13:03:30.148Z,29.40
2018-08-16T13:04:33.696Z,29.50
2018-08-16T13:05:37.296Z,29.40
2018-08-16T13:06:41.048Z,29.50
2018-08-16T13:07:44.684Z,29.60
2018-08-16T13:08:48.976Z,29.70
2018-08-16T13:09:52.507Z,29.70
2018-08-16T13:10:56.222Z,29.80
2018-08-16T13:11:59.756Z,29.90
2018-08-16T13:13:03.582Z,29.90
2018-08-16T13:14:07.295Z,29.90
2018-08-16T13:15:11.445Z,29.90
2018-08-16T13:16:15.641Z,29.90
2018-08-16T13:17:19.265Z,29.80
2018-08-16T13:18:22.868Z,29.70
2018-08-16T13:19:27.239Z,29.70
2018-08-16T13:20:30.918Z,29.60
2018-08-16T13:21:34.538Z,29.60
2018-08-16T13:22:38.426Z,29.50
2018-08-16T13:23:42.188Z,29.50
2018-08-16T13:24:46.085Z,29.40
2018-08-16T13:25:49.602Z,29.40
2018-08-16T13:26:53.937Z,29.30
2018-08-16T13:27:57.564Z,29.30
2018-08-16T13:29:01.166Z,29.30
2018-08-16T13:30:05.837Z,29.30
2018-08-16T13:31:09.511Z,29.30
2018-08-16T13:32:13.039Z,29.30
2018-08-16T13:33:17.153Z,29.30
2018-08-16T13:34:21.574Z,29.30
2018-08-16T13:35:25.263Z,29.30
2018-08-16T13:36:28.817Z,29.30
2018-08-16T13:37:32.451Z,29.40
2018-08-16T13:38:37.252Z,29.30
2018-08-16T13:39:41.355Z,29.30
2018-08-16T13:40:44.991Z,29.30
2018-08-16T13:41:48.707Z,29.30
2018-08-16T13:42:52.496Z,29.20
2018-08-16T13:43:56.095Z,29.20
2018-08-16T13:45:00.153Z,29.20
2018-08-16T13:46:03.742Z,29.10
2018-08-16T13:47:08.097Z,29.20
2018-08-16T13:48:18.332Z,29.20